createdAt,value
2023-04-29T00:00:27.776Z,22.13
2023-04-29T00:02:55.256Z,25.98
2023-04-29T00:05:22.953Z,21.98
2023-04-29T00:07:50.296Z,25.45
2023-04-29T00:10:17.725Z,22.15
2023-04-29T00:12:45.101Z,22.25
2023-04-29T00:15:12.509Z,28.13
2023-04-29T00:17:39.899Z,23.00
2023-04-29T00:20:08.322Z,20.67
2023-04-29T00:22:35.713Z,20.77
2023-04-29T00:25:03.108Z,21.85
2023-04-29T00:27:30.539Z,19.05
2023-04-29T00:29:57.849Z,17.73
2023-04-29T00:32:25.375Z,18.73
2023-04-29T00:34:52.767Z,20.90
2023-04-29T00:37:20.104Z,21.45
2023-04-29T00:39:47.524Z,20.08
2023-04-29T00:42:14.920Z,19.67
2023-04-29T00:44:42.350Z,21.63
2023-04-29T00:47:12.842Z,19.30
2023-04-29T00:49:40.552Z,19.75
2023-04-29T00:52:11.325Z,22.00
2023-04-29T00:54:39.181Z,17.02
2023-04-29T00:57:07.384Z,18.80
2023-04-29T00:59:34.811Z,18.33
2023-04-29T01:02:04.214Z,17.50
2023-04-29T01:04:31.981Z,16.42
2023-04-29T01:07:14.420Z,18.98
2023-04-29T01:09:55.382Z,15.00
2023-04-29T01:12:27.848Z,14.85
2023-04-29T01:15:22.870Z,16.88
2023-04-29T01:17:53.504Z,16.00
2023-04-29T01:20:21.980Z,15.40
2023-04-29T01:22:49.338Z,16.48
2023-04-29T01:25:16.687Z,14.68
2023-04-29T01:27:53.969Z,16.38
2023-04-29T01:30:33.257Z,13.85
2023-04-29T01:33:06.540Z,15.40
2023-04-29T01:35:43.250Z,14.85
2023-04-29T01:38:14.193Z,13.25
2023-04-29T01:40:49.204Z,13.70
2023-04-29T01:43:17.031Z,13.60
2023-04-29T01:45:45.172Z,14.77
2023-04-29T01:48:12.833Z,14.55
2023-04-29T01:50:40.183Z,15.27
2023-04-29T01:53:08.138Z,13.60
2023-04-29T01:55:35.528Z,13.80
2023-04-29T01:58:02.863Z,13.68
2023-04-29T02:00:30.227Z,16.92
2023-04-29T02:02:57.626Z,13.32
2023-04-29T02:05:25.124Z,10.60
2023-04-29T02:07:52.485Z,10.73
2023-04-29T02:10:19.801Z,10.52
2023-04-29T02:12:47.108Z,7.95
2023-04-29T02:15:14.486Z,8.32
2023-04-29T02:17:41.818Z,8.27
2023-04-29T02:20:10.627Z,9.20
2023-04-29T02:22:38.195Z,9.43
2023-04-29T02:25:07.085Z,11.13
2023-04-29T02:27:34.428Z,10.93
2023-04-29T02:30:01.751Z,10.75
2023-04-29T02:32:29.106Z,11.07
2023-04-29T02:34:56.434Z,12.23
2023-04-29T02:37:24.750Z,11.73
2023-04-29T02:39:53.084Z,11.23
2023-04-29T02:42:20.891Z,12.10
2023-04-29T02:44:48.227Z,13.30
2023-04-29T02:47:15.760Z,13.30
2023-04-29T02:49:43.075Z,14.45
2023-04-29T02:52:10.413Z,12.90
2023-04-29T02:54:38.158Z,12.95
2023-04-29T02:57:05.474Z,14.40
2023-04-29T02:59:32.982Z,14.27
2023-04-29T03:02:00.358Z,13.98
2023-04-29T03:04:28.700Z,16.55
2023-04-29T03:06:57.121Z,13.50
2023-04-29T03:09:24.905Z,15.60
2023-04-29T03:11:53.256Z,14.05
2023-04-29T03:14:20.586Z,14.35
2023-04-29T03:16:48.007Z,15.52
2023-04-29T03:19:15.465Z,14.23
2023-04-29T03:21:42.764Z,13.25
2023-04-29T03:24:10.164Z,14.88
2023-04-29T03:26:37.505Z,12.15
2023-04-29T03:29:04.869Z,14.25
2023-04-29T03:31:32.297Z,13.77
2023-04-29T03:33:59.633Z,13.40
2023-04-29T03:36:26.952Z,14.13
2023-04-29T03:38:54.355Z,12.93
2023-04-29T03:41:24.150Z,14.77
2023-04-29T03:43:51.973Z,14.60
2023-04-29T03:46:19.423Z,14.05
2023-04-29T03:48:46.845Z,12.50
2023-04-29T03:51:14.395Z,12.32
2023-04-29T03:53:41.770Z,12.82
2023-04-29T03:56:09.450Z,13.82
2023-04-29T03:58:36.957Z,14.23
2023-04-29T04:01:04.308Z,12.68
2023-04-29T04:03:32.898Z,12.05
2023-04-29T04:06:00.340Z,11.80
2023-04-29T04:08:27.698Z,12.63
2023-04-29T04:10:55.110Z,14.35
2023-04-29T04:13:22.472Z,14.48
2023-04-29T04:15:53.137Z,15.68
2023-04-29T04:18:20.511Z,14.52
2023-04-29T04:20:47.981Z,13.70
2023-04-29T04:23:15.582Z,15.65
2023-04-29T04:25:49.572Z,13.15
2023-04-29T04:28:16.912Z,17.80
2023-04-29T04:30:44.479Z,15.77
2023-04-29T04:33:11.802Z,17.55
2023-04-29T04:35:40.005Z,17.23
2023-04-29T04:38:07.753Z,17.50
2023-04-29T04:40:35.154Z,17.70
2023-04-29T04:43:02.603Z,20.33
2023-04-29T04:45:30.442Z,20.35
2023-04-29T04:47:57.843Z,20.25
2023-04-29T04:50:25.298Z,18.38
2023-04-29T04:52:52.640Z,22.73
2023-04-29T04:55:20.220Z,20.55
2023-04-29T04:57:47.541Z,21.58
2023-04-29T05:00:15.192Z,20.98
2023-04-29T05:02:43.033Z,22.58
2023-04-29T05:05:10.514Z,26.30
2023-04-29T05:07:37.865Z,23.73
2023-04-29T05:10:06.905Z,25.20
2023-04-29T05:12:35.510Z,25.33
2023-04-29T05:15:04.107Z,27.73
2023-04-29T05:17:31.603Z,28.67
2023-04-29T05:19:58.988Z,27.52
2023-04-29T05:22:26.367Z,24.80
2023-04-29T05:24:54.544Z,34.92
2023-04-29T05:27:22.031Z,29.50
2023-04-29T05:29:49.366Z,28.63
2023-04-29T05:32:16.852Z,30.35
2023-04-29T05:34:45.063Z,29.08
2023-04-29T05:37:12.369Z,31.48
2023-04-29T05:39:39.711Z,30.65
2023-04-29T05:42:07.115Z,28.42
2023-04-29T05:44:34.503Z,31.45
2023-04-29T05:47:01.896Z,29.05
2023-04-29T05:49:29.214Z,27.80
2023-04-29T05:51:56.572Z,30.58
2023-04-29T05:54:23.966Z,25.00
2023-04-29T05:56:51.532Z,20.10
2023-04-29T05:59:18.870Z,18.65
2023-04-29T06:01:46.384Z,18.15
2023-04-29T06:04:14.038Z,16.98
2023-04-29T06:06:41.618Z,15.32
2023-04-29T06:09:19.897Z,17.27
2023-04-29T06:11:54.188Z,15.90
2023-04-29T06:14:21.854Z,18.45
2023-04-29T06:16:49.765Z,17.70
2023-04-29T06:19:17.147Z,16.60
2023-04-29T06:21:44.552Z,17.42
2023-04-29T06:24:11.863Z,16.40
2023-04-29T06:26:39.224Z,14.45
2023-04-29T06:29:06.507Z,14.80
2023-04-29T06:31:34.085Z,14.32
2023-04-29T06:34:01.614Z,12.00
2023-04-29T06:36:28.981Z,11.00
2023-04-29T06:38:56.451Z,9.85
2023-04-29T06:41:23.928Z,10.13
2023-04-29T06:43:51.309Z,11.45
2023-04-29T06:46:18.776Z,11.63
2023-04-29T06:48:46.156Z,12.23
2023-04-29T06:51:13.603Z,15.85
2023-04-29T06:53:40.992Z,12.25
2023-04-29T06:56:08.676Z,13.32
2023-04-29T06:58:36.268Z,15.25
2023-04-29T07:01:04.449Z,14.90
2023-04-29T07:03:32.380Z,16.02
2023-04-29T07:06:00.011Z,16.52
2023-04-29T07:08:28.880Z,15.63
2023-04-29T07:10:59.050Z,15.15
2023-04-29T07:13:26.574Z,14.65
2023-04-29T07:15:54.046Z,14.95
2023-04-29T07:18:21.399Z,14.85
2023-04-29T07:20:49.865Z,14.60
2023-04-29T07:23:17.195Z,14.10
2023-04-29T07:25:44.537Z,14.07
2023-04-29T07:28:11.900Z,13.18
2023-04-29T07:30:39.282Z,17.80
2023-04-29T07:33:06.786Z,15.93
2023-04-29T07:35:34.335Z,17.88
2023-04-29T07:38:01.754Z,16.83
2023-04-29T07:40:29.219Z,17.92
2023-04-29T07:42:56.575Z,16.83
2023-04-29T07:45:23.979Z,20.08
2023-04-29T07:47:51.641Z,17.63
2023-04-29T07:50:19.088Z,20.05
2023-04-29T07:52:46.461Z,20.25
2023-04-29T07:55:13.778Z,19.55
2023-04-29T07:57:41.096Z,21.13
2023-04-29T08:00:09.029Z,22.15
2023-04-29T08:02:36.739Z,22.27
2023-04-29T08:05:04.832Z,25.83
2023-04-29T08:07:32.692Z,25.67
2023-04-29T08:10:00.250Z,26.30
2023-04-29T08:12:27.596Z,25.67
2023-04-29T08:14:55.154Z,27.48
2023-04-29T08:17:22.639Z,29.73
2023-04-29T08:19:50.048Z,28.67
2023-04-29T08:22:18.129Z,29.52
2023-04-29T08:24:45.605Z,27.10
2023-04-29T08:27:12.957Z,28.65
2023-04-29T08:29:40.490Z,30.35
2023-04-29T08:32:07.930Z,27.92
2023-04-29T08:34:36.538Z,31.80
2023-04-29T08:37:04.086Z,30.05
2023-04-29T08:39:31.616Z,27.20
2023-04-29T08:42:00.081Z,29.88
2023-04-29T08:44:28.154Z,31.88
2023-04-29T08:46:56.301Z,25.48
2023-04-29T08:49:23.751Z,27.05
2023-04-29T08:51:53.840Z,29.00
2023-04-29T08:54:21.256Z,29.23
2023-04-29T08:56:48.770Z,30.77
2023-04-29T08:59:16.711Z,26.23
2023-04-29T09:01:44.792Z,29.80
2023-04-29T09:04:21.666Z,31.90
2023-04-29T09:06:49.404Z,27.15
2023-04-29T09:09:18.586Z,29.95
2023-04-29T09:11:47.659Z,28.58
2023-04-29T09:14:15.767Z,27.42
2023-04-29T09:16:43.142Z,28.20
2023-04-29T09:19:10.524Z,29.88
2023-04-29T09:21:37.892Z,34.13
2023-04-29T09:24:05.351Z,30.38
2023-04-29T09:26:42.984Z,35.42
2023-04-29T09:29:16.397Z,35.33
2023-04-29T09:31:43.978Z,32.97
2023-04-29T09:34:14.773Z,32.83
2023-04-29T09:36:42.277Z,32.53
2023-04-29T09:39:13.645Z,30.75
2023-04-29T09:41:53.334Z,35.70
2023-04-29T09:44:20.645Z,29.77
2023-04-29T09:47:15.064Z,29.50
2023-04-29T09:49:43.236Z,31.27
2023-04-29T09:52:11.302Z,29.85
2023-04-29T09:54:39.909Z,30.85
2023-04-29T09:57:08.093Z,25.02
2023-04-29T09:59:36.422Z,25.50
2023-04-29T10:02:09.402Z,17.50
2023-04-29T10:04:40.087Z,13.60
2023-04-29T10:07:08.164Z,18.08
2023-04-29T10:09:36.064Z,14.63
2023-04-29T10:12:04.315Z,15.02
2023-04-29T10:14:32.759Z,16.75
2023-04-29T10:17:00.980Z,14.20
2023-04-29T10:19:35.629Z,15.63
2023-04-29T10:22:08.258Z,13.95
2023-04-29T10:24:38.050Z,11.80
2023-04-29T10:27:08.620Z,11.98
2023-04-29T10:29:38.778Z,13.00
2023-04-29T10:32:08.247Z,13.95
2023-04-29T10:34:39.139Z,12.00
2023-04-29T10:37:07.706Z,13.07
2023-04-29T10:39:47.229Z,10.75
2023-04-29T10:42:27.054Z,9.65
2023-04-29T10:45:18.776Z,10.82
2023-04-29T10:48:15.359Z,11.48
2023-04-29T10:50:48.654Z,10.90
2023-04-29T10:53:17.076Z,9.80
2023-04-29T10:55:47.907Z,9.50
2023-04-29T10:58:33.905Z,9.68
2023-04-29T11:01:01.395Z,9.05
2023-04-29T11:03:48.951Z,10.05
2023-04-29T11:06:16.860Z,7.47
2023-04-29T11:08:45.256Z,8.25
2023-04-29T11:11:14.971Z,8.23
2023-04-29T11:13:42.315Z,7.93
2023-04-29T11:16:10.868Z,6.90
2023-04-29T11:18:58.177Z,6.72
2023-04-29T11:21:25.546Z,7.28
2023-04-29T11:23:53.154Z,7.57
2023-04-29T11:26:21.770Z,6.13
2023-04-29T11:28:49.211Z,6.13
2023-04-29T11:31:16.563Z,6.82
2023-04-29T11:33:44.020Z,6.60
2023-04-29T11:36:14.563Z,6.07
2023-04-29T11:38:41.920Z,7.28
2023-04-29T11:41:09.868Z,11.50
2023-04-29T11:43:39.945Z,10.20
2023-04-29T11:46:12.916Z,9.65
2023-04-29T11:48:46.845Z,10.82
2023-04-29T11:51:14.712Z,9.55
2023-04-29T11:53:45.170Z,10.32
2023-04-29T11:56:12.812Z,11.70
2023-04-29T11:58:40.160Z,10.73
2023-04-29T12:01:07.552Z,10.05
2023-04-29T12:03:36.709Z,11.20
2023-04-29T12:06:04.763Z,11.07
2023-04-29T12:08:34.953Z,9.32
2023-04-29T12:11:02.392Z,10.63
2023-04-29T12:13:31.355Z,12.10
2023-04-29T12:15:59.554Z,10.90
2023-04-29T12:18:28.214Z,7.40
2023-04-29T12:20:58.991Z,7.68
2023-04-29T12:23:27.614Z,8.43
2023-04-29T12:25:55.070Z,7.32
2023-04-29T12:28:22.845Z,9.18
2023-04-29T12:30:51.712Z,7.70
2023-04-29T12:33:26.986Z,7.38
2023-04-29T12:35:55.700Z,6.70
2023-04-29T12:38:29.796Z,7.38
2023-04-29T12:40:57.766Z,7.05
2023-04-29T12:43:31.523Z,7.07
2023-04-29T12:46:03.222Z,8.52
2023-04-29T12:48:33.454Z,9.65
2023-04-29T12:51:01.881Z,9.25
2023-04-29T12:53:32.564Z,7.43
2023-04-29T12:56:00.119Z,7.13
2023-04-29T12:58:34.466Z,6.38
2023-04-29T13:01:01.881Z,7.03
2023-04-29T13:03:29.415Z,7.13
2023-04-29T13:05:57.461Z,8.00
2023-04-29T13:08:24.790Z,7.70
2023-04-29T13:10:52.189Z,7.68
2023-04-29T13:13:19.734Z,9.27
2023-04-29T13:15:47.102Z,13.95
2023-04-29T13:18:14.480Z,8.15
2023-04-29T13:20:42.682Z,10.80
2023-04-29T13:23:10.348Z,9.38
2023-04-29T13:25:37.728Z,8.30
2023-04-29T13:28:08.244Z,10.20
2023-04-29T13:30:35.866Z,8.80
2023-04-29T13:33:09.651Z,10.88
2023-04-29T13:35:40.632Z,8.07
2023-04-29T13:38:08.501Z,10.80
2023-04-29T13:40:39.500Z,11.52
2023-04-29T13:43:09.928Z,16.10
2023-04-29T13:45:42.851Z,15.30
2023-04-29T13:48:24.495Z,12.85
2023-04-29T13:53:46.727Z,9.52
2023-04-29T13:57:05.587Z,10.52
2023-04-29T13:59:38.142Z,9.98
2023-04-29T14:04:22.299Z,10.23
2023-04-29T14:06:49.740Z,10.13
2023-04-29T14:09:17.627Z,16.95
2023-04-29T14:11:45.019Z,16.10
2023-04-29T14:14:12.333Z,12.38
2023-04-29T14:16:39.748Z,9.52
2023-04-29T14:19:07.699Z,14.45
2023-04-29T14:21:35.640Z,9.82
2023-04-29T14:24:03.856Z,36.60
2023-04-29T14:26:31.917Z,15.52
2023-04-29T14:29:00.331Z,12.00
2023-04-29T14:31:29.473Z,10.60
2023-04-29T14:34:00.060Z,10.75
2023-04-29T14:36:28.391Z,10.77
2023-04-29T14:38:55.843Z,10.48
2023-04-29T14:41:23.306Z,9.88
2023-04-29T14:43:50.829Z,10.82
2023-04-29T14:46:18.418Z,11.32
2023-04-29T14:48:46.451Z,10.77
2023-04-29T14:51:13.789Z,11.65
2023-04-29T14:53:41.221Z,11.23
2023-04-29T14:56:08.654Z,8.77
2023-04-29T14:58:36.169Z,9.95
2023-04-29T15:01:03.493Z,10.10
2023-04-29T15:03:30.894Z,12.38
2023-04-29T15:05:59.042Z,12.88
2023-04-29T15:08:26.472Z,10.40
2023-04-29T15:10:53.962Z,10.93
2023-04-29T15:13:21.643Z,11.18
2023-04-29T15:15:49.753Z,12.88
2023-04-29T15:18:17.200Z,11.90
2023-04-29T15:20:44.517Z,11.52
2023-04-29T15:23:12.377Z,11.52
2023-04-29T15:25:39.947Z,11.13
2023-04-29T15:28:07.350Z,10.73
2023-04-29T15:30:35.798Z,11.45
2023-04-29T15:33:04.826Z,12.98
2023-04-29T15:35:32.724Z,11.25
2023-04-29T15:38:00.067Z,11.25
2023-04-29T15:40:27.509Z,10.75
2023-04-29T15:42:54.948Z,12.35
2023-04-29T15:45:22.341Z,11.60
2023-04-29T15:47:49.685Z,11.93
2023-04-29T15:50:17.147Z,11.52
2023-04-29T15:52:44.505Z,12.43
2023-04-29T15:55:12.215Z,10.13
2023-04-29T15:57:41.635Z,12.40
2023-04-29T16:00:09.448Z,11.10
2023-04-29T16:02:36.952Z,12.23
2023-04-29T16:05:04.485Z,10.32
2023-04-29T16:07:32.440Z,11.52
2023-04-29T16:10:01.147Z,10.52
2023-04-29T16:12:28.845Z,9.18
2023-04-29T16:14:56.326Z,9.82
2023-04-29T16:17:23.656Z,10.68
2023-04-29T16:19:51.001Z,12.23
2023-04-29T16:22:18.290Z,8.50
2023-04-29T16:24:47.858Z,10.70
2023-04-29T16:27:17.490Z,10.52
2023-04-29T16:29:44.863Z,8.40
2023-04-29T16:32:12.226Z,11.95
2023-04-29T16:34:39.532Z,9.55
2023-04-29T16:37:12.557Z,10.95
2023-04-29T16:39:40.501Z,8.80
2023-04-29T16:42:07.943Z,10.68
2023-04-29T16:44:35.460Z,11.13
2023-04-29T16:47:03.291Z,10.35
2023-04-29T16:49:31.358Z,10.57
2023-04-29T16:51:58.806Z,9.40
2023-04-29T16:54:27.820Z,9.25
2023-04-29T16:56:55.303Z,8.88
2023-04-29T16:59:22.689Z,9.73
2023-04-29T17:01:50.122Z,8.50
2023-04-29T17:04:17.661Z,9.60
2023-04-29T17:06:45.292Z,8.00
2023-04-29T17:09:13.034Z,8.93
2023-04-29T17:11:40.466Z,7.65
2023-04-29T17:14:08.022Z,8.27
2023-04-29T17:16:35.496Z,7.35
2023-04-29T17:19:03.044Z,8.57
2023-04-29T17:21:32.548Z,11.02
2023-04-29T17:23:59.889Z,7.63
2023-04-29T17:26:27.496Z,9.48
2023-04-29T17:28:54.937Z,7.25
2023-04-29T17:31:25.650Z,7.57
2023-04-29T17:34:05.398Z,9.32
2023-04-29T17:36:36.217Z,7.03
2023-04-29T17:39:03.615Z,9.43
2023-04-29T17:41:30.913Z,8.32
2023-04-29T17:43:58.260Z,7.90
2023-04-29T17:46:28.868Z,9.23
2023-04-29T17:48:56.426Z,8.75
2023-04-29T17:51:23.740Z,9.07
2023-04-29T17:53:51.249Z,11.20
2023-04-29T17:56:18.619Z,8.23
2023-04-29T17:58:46.178Z,9.20
2023-04-29T18:01:13.657Z,7.57
2023-04-29T18:03:42.197Z,10.25
2023-04-29T18:06:09.738Z,8.75
2023-04-29T18:08:37.204Z,10.43
2023-04-29T18:11:04.512Z,10.00
2023-04-29T18:13:34.690Z,8.80
2023-04-29T18:16:02.138Z,8.55
2023-04-29T18:18:29.538Z,8.32
2023-04-29T18:20:56.883Z,10.63
2023-04-29T18:23:24.308Z,9.98
2023-04-29T18:25:51.689Z,9.75
2023-04-29T18:28:25.337Z,12.43
2023-04-29T18:30:53.458Z,9.82
2023-04-29T18:33:20.866Z,9.98
2023-04-29T18:35:48.239Z,8.73
2023-04-29T18:38:17.610Z,8.50
2023-04-29T18:40:45.275Z,8.48
2023-04-29T18:43:17.285Z,7.43
2023-04-29T18:45:46.042Z,7.00
2023-04-29T18:48:13.476Z,7.82
2023-04-29T18:50:40.849Z,10.00
2023-04-29T18:53:08.808Z,13.60
2023-04-29T18:55:36.294Z,6.55
2023-04-29T18:58:03.707Z,6.97
2023-04-29T19:00:31.125Z,5.53
2023-04-29T19:02:58.470Z,6.72
2023-04-29T19:05:25.836Z,4.82
2023-04-29T19:07:53.168Z,4.80
2023-04-29T19:10:20.642Z,6.32
2023-04-29T19:12:48.087Z,5.60
2023-04-29T19:15:15.656Z,5.60
2023-04-29T19:17:42.989Z,6.63
2023-04-29T19:20:10.721Z,4.53
2023-04-29T19:22:38.181Z,4.90
2023-04-29T19:25:05.661Z,5.28
2023-04-29T19:27:32.996Z,4.95
2023-04-29T19:30:00.416Z,3.55
2023-04-29T19:32:30.054Z,5.95
2023-04-29T19:34:57.692Z,5.22
2023-04-29T19:37:25.030Z,3.47
2023-04-29T19:39:53.104Z,5.15
2023-04-29T19:42:20.569Z,5.95
2023-04-29T19:44:47.962Z,6.07
2023-04-29T19:47:15.329Z,4.53
2023-04-29T19:49:42.784Z,3.92
2023-04-29T19:52:10.406Z,4.65
2023-04-29T19:54:38.345Z,4.25
2023-04-29T19:57:06.388Z,4.32
2023-04-29T19:59:34.088Z,5.13
2023-04-29T20:02:01.549Z,4.35
2023-04-29T20:04:29.022Z,5.65
2023-04-29T20:06:56.461Z,5.72
2023-04-29T20:09:23.795Z,5.15
2023-04-29T20:11:51.289Z,6.28
2023-04-29T20:14:18.590Z,4.38
2023-04-29T20:16:45.973Z,6.40
2023-04-29T20:19:13.303Z,5.22
2023-04-29T20:21:41.333Z,6.90
2023-04-29T20:24:08.793Z,4.50
2023-04-29T20:26:36.143Z,5.90
2023-04-29T20:29:03.868Z,6.65
2023-04-29T20:31:31.321Z,8.27
2023-04-29T20:33:58.784Z,7.30
2023-04-29T20:36:28.637Z,7.72
2023-04-29T20:38:55.989Z,5.38
2023-04-29T20:41:23.360Z,7.65
2023-04-29T20:43:50.756Z,5.78
2023-04-29T20:46:18.230Z,6.38
2023-04-29T20:48:46.268Z,5.82
2023-04-29T20:51:13.815Z,4.88
2023-04-29T20:53:41.196Z,4.95
2023-04-29T20:56:10.745Z,4.68
2023-04-29T20:58:38.098Z,5.20
2023-04-29T21:01:05.647Z,4.72
2023-04-29T21:03:33.034Z,6.53
2023-04-29T21:06:00.598Z,6.32
2023-04-29T21:08:28.002Z,5.88
2023-04-29T21:10:55.327Z,5.82
2023-04-29T21:13:22.733Z,6.32
2023-04-29T21:15:50.075Z,5.40
2023-04-29T21:18:17.631Z,5.45
2023-04-29T21:20:45.898Z,6.22
2023-04-29T21:23:13.272Z,5.78
2023-04-29T21:25:40.763Z,6.32
2023-04-29T21:28:08.124Z,5.78
2023-04-29T21:30:35.484Z,6.10
2023-04-29T21:33:03.575Z,8.15
2023-04-29T21:35:31.117Z,5.28
2023-04-29T21:37:58.438Z,5.20
2023-04-29T21:40:26.752Z,6.78
2023-04-29T21:42:55.527Z,7.75
2023-04-29T21:45:23.025Z,6.80
2023-04-29T21:47:50.892Z,7.43
2023-04-29T21:50:18.530Z,7.05
2023-04-29T21:52:46.026Z,6.40
2023-04-29T21:55:13.434Z,6.90
2023-04-29T21:57:43.989Z,8.27
2023-04-29T22:00:31.015Z,8.23
2023-04-29T22:02:58.406Z,6.43
2023-04-29T22:05:25.747Z,6.93
2023-04-29T22:07:53.185Z,8.15
2023-04-29T22:10:20.561Z,9.02
2023-04-29T22:12:47.905Z,6.40
2023-04-29T22:15:27.511Z,11.40
2023-04-29T22:17:57.366Z,6.80
2023-04-29T22:20:25.471Z,8.32
2023-04-29T22:22:52.868Z,7.85
2023-04-29T22:25:22.061Z,7.95
2023-04-29T22:27:49.721Z,7.65
2023-04-29T22:30:18.081Z,6.72
2023-04-29T22:32:45.719Z,8.30
2023-04-29T22:35:13.240Z,8.02
2023-04-29T22:37:41.175Z,6.75
2023-04-29T22:40:08.939Z,7.25
2023-04-29T22:42:36.284Z,8.07
2023-04-29T22:45:03.674Z,6.80
2023-04-29T22:47:31.425Z,6.70
2023-04-29T22:49:58.807Z,6.75
2023-04-29T22:52:27.627Z,7.25
2023-04-29T22:54:54.926Z,7.70
2023-04-29T22:57:22.263Z,7.05
2023-04-29T22:59:49.682Z,9.07
2023-04-29T23:02:17.014Z,12.07
2023-04-29T23:04:44.360Z,9.98
2023-04-29T23:07:11.695Z,10.38
2023-04-29T23:09:39.026Z,10.02
2023-04-29T23:12:06.518Z,9.27
2023-04-29T23:14:33.948Z,8.75
2023-04-29T23:17:01.333Z,9.30
2023-04-29T23:19:28.769Z,7.95
2023-04-29T23:21:56.263Z,7.93
2023-04-29T23:24:23.617Z,9.80
2023-04-29T23:26:51.076Z,8.77
2023-04-29T23:29:18.397Z,12.43
2023-04-29T23:31:46.109Z,9.63
2023-04-29T23:34:13.460Z,7.90
2023-04-29T23:36:40.767Z,7.45
2023-04-29T23:39:08.139Z,6.85
2023-04-29T23:41:35.477Z,7.78
2023-04-29T23:44:02.823Z,6.55
2023-04-29T23:46:30.962Z,5.78
2023-04-29T23:48:58.407Z,6.07
2023-04-29T23:51:26.594Z,4.70
2023-04-29T23:53:53.925Z,5.00
2023-04-29T23:56:21.281Z,4.80
2023-04-29T23:58:48.633Z,8.50
